Time;durP1;ratioP1;P1;durP2;ratioP2;P2;SDS_P1;SDS_P2;PMS_P1;PMS_P2;Temp;Humidity;BMP_temperature;BMP_pressure;BME280_temperature;BME280_humidity;BME280_pressure;Samples;Min_cycle;Max_cycle;Signal;HPM_P1;HPM_P2
2022/01/08 00:00:58;;;;;;;6.72;2.65;;;2.70;99.90;;;;;;5106081;27;20950;-71
2022/01/08 00:03:29;;;;;;;4.05;2.08;;;3.10;99.90;;;;;;5107076;27;20089;-72
2022/01/08 00:05:57;;;;;;;5.43;2.30;;;3.00;99.90;;;;;;5121454;27;20062;-73
2022/01/08 00:08:24;;;;;;;8.38;2.20;;;3.00;99.90;;;;;;5087513;27;20142;-72
2022/01/08 00:10:50;;;;;;;6.07;2.03;;;3.00;99.90;;;;;;5085207;27;20074;-72
2022/01/08 00:13:16;;;;;;;3.72;1.85;;;2.80;99.90;;;;;;5123898;27;20074;-74
2022/01/08 00:15:41;;;;;;;4.78;2.15;;;3.10;99.90;;;;;;5119393;27;20379;-71
2022/01/08 00:18:07;;;;;;;6.10;2.38;;;2.90;99.90;;;;;;5084752;27;20518;-73
2022/01/08 00:20:35;;;;;;;5.80;2.45;;;2.80;99.90;;;;;;5121944;27;20073;-73
2022/01/08 00:23:01;;;;;;;4.05;1.70;;;4.00;99.90;;;;;;5104533;28;20038;-73
2022/01/08 00:25:27;;;;;;;5.63;1.98;;;3.30;99.90;;;;;;5116830;27;20042;-73
2022/01/08 00:27:53;;;;;;;6.60;2.28;;;3.20;99.90;;;;;;5120684;27;20039;-71
2022/01/08 00:30:19;;;;;;;4.30;1.60;;;2.90;99.90;;;;;;5106678;27;20158;-71
2022/01/08 00:32:45;;;;;;;5.53;1.70;;;3.00;99.90;;;;;;5106867;27;20038;-72
2022/01/08 00:35:11;;;;;;;7.65;2.15;;;3.40;99.90;;;;;;5106495;27;20087;-71
2022/01/08 00:37:37;;;;;;;5.10;2.38;;;2.80;99.90;;;;;;5102591;27;20094;-73
2022/01/08 00:40:08;;;;;;;4.20;1.65;;;2.90;99.90;;;;;;5101475;27;20049;-72
2022/01/08 00:42:35;;;;;;;3.80;1.90;;;3.30;99.90;;;;;;5103970;28;20047;-72
2022/01/08 00:45:00;;;;;;;4.88;1.90;;;2.80;99.90;;;;;;5095210;27;20039;-74
2022/01/08 00:47:26;;;;;;;4.38;2.47;;;3.30;99.90;;;;;;5097894;27;20039;-72
2022/01/08 00:49:52;;;;;;;6.38;1.92;;;2.80;99.90;;;;;;5119894;27;20048;-73
2022/01/08 00:52:18;;;;;;;6.93;2.63;;;3.00;99.90;;;;;;5128317;27;20169;-73
2022/01/08 00:54:43;;;;;;;3.85;1.95;;;2.90;99.90;;;;;;5128140;27;20043;-71
2022/01/08 00:57:09;;;;;;;6.53;2.17;;;3.10;99.90;;;;;;5108480;27;20039;-72
2022/01/08 00:59:35;;;;;;;4.85;1.88;;;3.30;99.90;;;;;;5089995;27;20102;-71
2022/01/08 01:02:01;;;;;;;4.97;2.05;;;3.40;99.90;;;;;;5087618;27;20046;-73
2022/01/08 01:04:27;;;;;;;4.70;2.25;;;2.90;99.90;;;;;;5110171;27;20043;-72
2022/01/08 01:06:53;;;;;;;3.47;1.83;;;3.20;99.90;;;;;;5131060;27;20050;-70
2022/01/08 01:09:18;;;;;;;5.53;2.20;;;2.90;99.90;;;;;;5102126;27;20102;-72
2022/01/08 01:11:44;;;;;;;3.33;2.00;;;3.30;99.90;;;;;;5094721;27;20054;-71
2022/01/08 01:14:10;;;;;;;4.68;2.33;;;3.20;99.90;;;;;;5115077;27;20483;-72
2022/01/08 01:16:36;;;;;;;5.65;2.65;;;3.60;99.90;;;;;;5096067;27;20529;-76
2022/01/08 01:19:03;;;;;;;5.60;2.85;;;2.80;99.90;;;;;;5115997;27;20038;-71
2022/01/08 01:21:29;;;;;;;5.20;2.58;;;3.10;99.90;;;;;;5110576;27;20348;-72
2022/01/08 01:23:55;;;;;;;6.00;3.05;;;2.80;99.90;;;;;;5129297;27;20049;-73
2022/01/08 01:26:24;;;;;;;4.45;3.25;;;2.80;99.90;;;;;;5126537;27;20031;-73
2022/01/08 01:47:34;;;;;;;7.03;3.72;;;3.40;99.90;;;;;;5029473;28;20040;-74
2022/01/08 01:50:00;;;;;;;7.97;4.18;;;3.60;99.90;;;;;;5091799;27;20047;-73
2022/01/08 01:52:25;;;;;;;8.05;3.45;;;3.00;99.90;;;;;;5108046;27;20512;-74
2022/01/08 01:54:51;;;;;;;5.43;3.60;;;3.70;99.90;;;;;;5115157;27;20035;-75
2022/01/08 01:57:19;;;;;;;6.28;3.50;;;3.10;99.90;;;;;;5099175;27;20039;-72
2022/01/08 01:59:45;;;;;;;8.93;3.45;;;3.20;99.90;;;;;;5124220;27;20050;-72
2022/01/08 02:02:11;;;;;;;9.43;4.28;;;3.50;99.90;;;;;;5119713;27;20039;-75
2022/01/08 02:04:37;;;;;;;7.07;3.42;;;3.10;99.90;;;;;;5101176;27;20375;-73
2022/01/08 02:07:03;;;;;;;6.60;3.85;;;4.10;99.90;;;;;;5114397;27;20058;-75
2022/01/08 02:09:28;;;;;;;7.57;3.80;;;3.60;99.90;;;;;;5132891;27;20042;-73
2022/01/08 02:11:59;;;;;;;4.72;2.97;;;3.60;99.90;;;;;;5114711;27;20050;-73
2022/01/08 02:14:29;;;;;;;5.97;3.78;;;3.10;99.90;;;;;;5131097;27;20035;-72
2022/01/08 02:16:55;;;;;;;7.88;3.28;;;3.70;99.90;;;;;;5112495;27;20050;-73
2022/01/08 02:19:21;;;;;;;4.65;3.00;;;3.20;99.90;;;;;;5115505;27;20256;-72
2022/01/08 02:21:58;;;;;;;9.43;3.72;;;3.30;99.90;;;;;;5114850;27;20180;-73
2022/01/08 02:24:25;;;;;;;7.05;3.38;;;3.10;99.90;;;;;;5129249;27;20042;-73
2022/01/08 02:26:52;;;;;;;7.50;3.00;;;3.50;99.90;;;;;;5129947;27;20126;-72
2022/01/08 02:29:20;;;;;;;9.68;4.35;;;4.10;99.90;;;;;;5098031;27;20051;-75
2022/01/08 02:31:57;;;;;;;7.22;3.60;;;3.50;99.90;;;;;;5130989;27;20118;-73
2022/01/08 02:34:25;;;;;;;9.35;4.15;;;3.40;99.90;;;;;;5131733;27;20038;-72
2022/01/08 02:36:55;;;;;;;8.45;3.75;;;3.00;99.90;;;;;;5130469;27;20620;-74
2022/01/08 02:39:20;;;;;;;10.25;4.10;;;3.40;99.90;;;;;;5094397;27;20103;-74
2022/01/08 02:41:46;;;;;;;11.55;4.05;;;4.40;99.90;;;;;;5126411;27;20034;-74
2022/01/08 02:44:12;;;;;;;7.32;3.47;;;3.20;99.90;;;;;;5112316;27;20118;-75
2022/01/08 02:46:40;;;;;;;10.48;3.80;;;3.10;99.90;;;;;;5112647;27;20023;-76
2022/01/08 02:49:06;;;;;;;9.68;4.78;;;3.00;99.90;;;;;;5130273;27;20463;-74
2022/01/08 02:51:34;;;;;;;7.85;3.15;;;3.40;99.90;;;;;;5109258;27;20386;-77
2022/01/08 02:54:00;;;;;;;6.72;3.17;;;3.20;99.90;;;;;;5131482;27;20043;-73
2022/01/08 02:56:26;;;;;;;6.68;3.97;;;3.20;99.90;;;;;;5097872;27;20489;-74
2022/01/08 02:58:52;;;;;;;6.32;3.22;;;3.00;99.90;;;;;;5109956;27;20043;-72
2022/01/08 03:01:21;;;;;;;4.63;2.80;;;3.30;99.90;;;;;;5110954;27;20077;-75
2022/01/08 03:03:46;;;;;;;4.57;2.45;;;3.30;99.90;;;;;;5112839;27;20062;-74
2022/01/08 03:06:12;;;;;;;5.70;2.75;;;3.30;99.90;;;;;;5130588;27;20059;-74
2022/01/08 03:08:38;;;;;;;4.95;2.88;;;3.20;99.90;;;;;;5129404;27;20050;-75
2022/01/08 03:11:03;;;;;;;6.40;3.33;;;2.80;99.90;;;;;;5130235;27;20151;-75
2022/01/08 03:13:29;;;;;;;6.97;2.95;;;2.80;99.90;;;;;;5108198;27;20027;-74
2022/01/08 03:15:55;;;;;;;5.97;2.60;;;3.20;99.90;;;;;;5114670;27;20030;-74
2022/01/08 03:18:21;;;;;;;5.53;2.70;;;3.20;99.90;;;;;;5073889;27;20035;-75
2022/01/08 03:21:00;;;;;;;5.90;3.22;;;3.10;99.90;;;;;;5128146;27;20034;-76
2022/01/08 03:23:34;;;;;;;3.60;2.90;;;2.80;99.90;;;;;;5130659;27;20043;-76
2022/01/08 03:26:04;;;;;;;5.75;2.42;;;3.10;99.90;;;;;;5130864;27;20038;-76
2022/01/08 03:28:30;;;;;;;4.55;2.58;;;2.50;99.90;;;;;;5095216;27;20387;-77
2022/01/08 03:30:56;;;;;;;5.75;2.55;;;3.10;99.90;;;;;;5112615;27;20051;-78
2022/01/08 03:33:22;;;;;;;11.20;3.95;;;2.60;99.90;;;;;;5129558;27;20158;-76
2022/01/08 03:35:47;;;;;;;6.47;2.58;;;2.80;99.90;;;;;;5113071;27;20050;-76
2022/01/08 03:38:13;;;;;;;5.72;2.58;;;2.70;99.90;;;;;;5094446;27;20039;-74
2022/01/08 03:40:39;;;;;;;6.03;2.85;;;3.00;99.90;;;;;;5108756;27;20066;-75
2022/01/08 03:43:04;;;;;;;5.95;2.97;;;3.10;99.90;;;;;;5112842;27;20114;-75
2022/01/08 03:45:30;;;;;;;7.70;3.08;;;3.30;99.90;;;;;;5106046;27;20045;-78
2022/01/08 03:50:40;;;;;;;5.67;2.73;;;3.20;99.90;;;;;;5095318;27;20042;-77
2022/01/08 03:53:06;;;;;;;6.72;3.25;;;3.20;99.90;;;;;;5127329;27;20142;-77
2022/01/08 03:55:32;;;;;;;7.30;2.92;;;2.80;99.90;;;;;;5103997;27;20043;-77
2022/01/08 03:57:57;;;;;;;5.50;2.70;;;3.60;99.90;;;;;;5130429;27;20454;-77
2022/01/08 04:00:23;;;;;;;7.40;3.28;;;3.20;99.90;;;;;;5109019;27;20534;-74
2022/01/08 04:02:53;;;;;;;8.32;3.15;;;3.60;99.90;;;;;;5130723;27;20046;-74
2022/01/08 04:05:20;;;;;;;5.05;3.00;;;2.70;99.90;;;;;;5113041;27;20126;-74
2022/01/08 04:07:46;;;;;;;7.32;3.10;;;2.60;99.90;;;;;;5129103;27;20047;-75
2022/01/08 04:10:12;;;;;;;9.68;3.22;;;2.90;99.90;;;;;;5130742;27;20038;-73
2022/01/08 04:12:45;;;;;;;6.57;3.28;;;3.50;99.90;;;;;;5109042;27;20482;-73
2022/01/08 04:18:07;;;;;;;4.10;2.53;;;3.20;99.90;;;;;;5115933;27;20137;-75
2022/01/08 04:20:39;;;;;;;7.82;2.95;;;3.20;99.90;;;;;;5130362;27;20307;-72
2022/01/08 04:23:04;;;;;;;6.38;2.65;;;2.60;99.90;;;;;;5134814;27;20035;-73
2022/01/08 04:25:31;;;;;;;3.80;2.35;;;2.70;99.90;;;;;;5134131;27;20034;-73
2022/01/08 04:27:56;;;;;;;6.18;2.30;;;3.00;99.90;;;;;;5115397;27;20026;-72
2022/01/08 04:30:22;;;;;;;5.25;1.98;;;2.50;99.90;;;;;;5135374;27;20618;-73
2022/01/08 04:32:48;;;;;;;6.60;2.17;;;2.90;99.90;;;;;;5132570;27;20058;-75
2022/01/08 04:35:14;;;;;;;3.38;1.80;;;2.80;99.90;;;;;;5099628;27;20078;-73
2022/01/08 04:37:40;;;;;;;3.58;2.00;;;2.40;99.90;;;;;;5115387;27;20047;-72
2022/01/08 04:40:06;;;;;;;4.15;1.83;;;2.40;99.90;;;;;;5113184;27;20119;-73
2022/01/08 04:42:32;;;;;;;8.77;1.73;;;2.40;99.90;;;;;;5117748;27;20368;-74
2022/01/08 04:44:58;;;;;;;7.68;2.05;;;2.50;99.90;;;;;;5099846;27;20037;-74
2022/01/08 04:47:24;;;;;;;3.67;2.55;;;2.50;99.90;;;;;;5134082;27;20042;-74
2022/01/08 04:49:49;;;;;;;4.40;1.70;;;3.40;99.90;;;;;;5134190;27;20046;-75
2022/01/08 04:52:15;;;;;;;6.55;2.15;;;3.60;99.90;;;;;;5112365;27;20046;-74
2022/01/08 04:54:41;;;;;;;4.32;2.33;;;2.70;99.90;;;;;;5093430;27;20046;-76
2022/01/08 04:57:06;;;;;;;11.45;2.53;;;3.00;99.90;;;;;;5116256;27;20041;-76
2022/01/08 04:59:32;;;;;;;5.40;2.40;;;3.20;99.90;;;;;;5118132;27;20102;-76
2022/01/08 05:01:58;;;;;;;3.30;1.98;;;3.40;99.90;;;;;;5132916;27;20365;-74
2022/01/08 05:04:24;;;;;;;4.30;1.85;;;2.90;99.90;;;;;;5133630;27;20467;-75
2022/01/08 05:06:49;;;;;;;5.18;2.20;;;3.70;99.90;;;;;;5133207;27;20042;-76
2022/01/08 05:09:15;;;;;;;6.00;3.00;;;4.00;99.90;;;;;;5116381;27;20053;-75
2022/01/08 05:11:41;;;;;;;5.05;1.95;;;3.10;99.90;;;;;;5113266;27;20034;-75
2022/01/08 05:14:08;;;;;;;3.50;1.92;;;3.30;99.90;;;;;;5119348;27;20038;-75
2022/01/08 05:16:34;;;;;;;6.40;1.80;;;3.00;99.90;;;;;;5099251;27;20099;-75
2022/01/08 05:19:01;;;;;;;3.92;1.60;;;3.10;99.90;;;;;;5134046;27;20846;-74
2022/01/08 05:21:30;;;;;;;8.00;1.85;;;3.10;99.90;;;;;;5115594;27;20627;-73
2022/01/08 05:23:57;;;;;;;4.70;1.90;;;2.80;99.90;;;;;;5118641;27;20046;-72
2022/01/08 05:26:25;;;;;;;5.65;2.85;;;3.20;99.90;;;;;;5111984;27;20038;-74
2022/01/08 05:28:55;;;;;;;4.38;1.48;;;2.90;99.90;;;;;;5118198;27;20086;-73
2022/01/08 05:31:23;;;;;;;3.20;1.70;;;3.00;99.90;;;;;;5095848;27;20435;-74
2022/01/08 05:33:50;;;;;;;4.50;1.80;;;3.00;99.90;;;;;;5115430;27;20110;-72
2022/01/08 05:36:16;;;;;;;4.85;1.80;;;2.80;99.90;;;;;;5116069;27;20038;-71
2022/01/08 05:38:42;;;;;;;3.92;1.70;;;3.20;99.90;;;;;;5117945;27;20094;-72
2022/01/08 05:41:09;;;;;;;3.65;1.73;;;3.30;99.90;;;;;;5134347;27;20126;-75
2022/01/08 05:43:35;;;;;;;4.88;1.90;;;2.60;99.90;;;;;;5133248;27;20031;-75
2022/01/08 05:46:01;;;;;;;4.63;1.60;;;3.00;99.90;;;;;;5113359;27;20502;-74
2022/01/08 05:48:27;;;;;;;6.80;1.80;;;2.90;99.90;;;;;;5098662;27;20042;-73
2022/01/08 05:50:53;;;;;;;9.30;1.85;;;2.80;99.90;;;;;;5133678;27;20117;-76
2022/01/08 05:53:20;;;;;;;6.03;1.83;;;2.70;99.90;;;;;;5112821;27;20110;-74
2022/01/08 05:55:46;;;;;;;3.83;1.60;;;3.20;99.90;;;;;;5119005;27;20041;-74
2022/01/08 05:58:13;;;;;;;7.10;1.80;;;3.20;99.90;;;;;;5134098;27;20034;-73
2022/01/08 06:00:38;;;;;;;4.53;1.88;;;2.60;99.90;;;;;;5118779;27;20746;-73
2022/01/08 06:03:04;;;;;;;4.28;1.67;;;3.20;99.90;;;;;;5133175;27;20035;-72
2022/01/08 06:05:30;;;;;;;6.30;2.10;;;3.10;99.90;;;;;;5131940;27;20035;-75
2022/01/08 06:07:56;;;;;;;3.53;1.95;;;2.60;99.90;;;;;;5115783;27;20118;-72
2022/01/08 06:10:22;;;;;;;3.75;1.98;;;3.30;99.90;;;;;;5101599;27;20038;-72
2022/01/08 06:12:48;;;;;;;6.95;2.38;;;3.40;99.90;;;;;;5130467;27;20058;-71
2022/01/08 06:15:14;;;;;;;7.40;2.25;;;3.20;99.90;;;;;;5116425;27;20474;-73
2022/01/08 06:17:40;;;;;;;4.93;2.13;;;4.10;99.90;;;;;;5081415;27;20034;-72
2022/01/08 06:20:06;;;;;;;7.57;2.90;;;3.30;99.90;;;;;;5117457;27;20125;-73
2022/01/08 06:22:32;;;;;;;7.47;3.03;;;3.50;99.90;;;;;;5134620;27;20050;-76
2022/01/08 06:24:58;;;;;;;5.03;2.75;;;3.50;99.90;;;;;;5133207;27;20364;-76
2022/01/08 06:27:24;;;;;;;5.15;2.70;;;3.30;99.90;;;;;;5133398;27;20050;-73
2022/01/08 06:29:49;;;;;;;5.15;2.85;;;3.00;99.90;;;;;;5100288;27;20082;-74
2022/01/08 06:32:15;;;;;;;5.55;2.90;;;3.30;99.90;;;;;;5133161;27;20039;-76
2022/01/08 06:34:42;;;;;;;7.88;2.97;;;3.40;99.90;;;;;;5132535;27;20069;-75
2022/01/08 06:37:08;;;;;;;10.13;3.17;;;3.40;99.90;;;;;;5115256;27;20095;-73
2022/01/08 06:39:33;;;;;;;9.43;3.40;;;3.10;99.90;;;;;;5112561;27;20418;-75
2022/01/08 06:41:59;;;;;;;8.52;3.63;;;2.90;99.90;;;;;;5097845;27;20022;-73
2022/01/08 06:44:25;;;;;;;7.25;3.00;;;3.00;99.90;;;;;;5132766;27;20098;-77
2022/01/08 06:46:50;;;;;;;7.53;3.83;;;3.30;99.90;;;;;;5114303;27;20378;-76
2022/01/08 06:49:16;;;;;;;9.02;4.35;;;3.40;99.90;;;;;;5116413;27;20407;-76
2022/01/08 06:51:42;;;;;;;19.05;4.55;;;2.70;99.90;;;;;;5131570;27;20125;-74
2022/01/08 06:54:07;;;;;;;12.02;4.90;;;3.70;99.90;;;;;;5116166;27;20054;-73
2022/01/08 06:56:33;;;;;;;10.40;4.68;;;3.20;99.90;;;;;;5116076;27;20046;-73
2022/01/08 06:58:59;;;;;;;10.15;4.47;;;3.30;99.90;;;;;;5115184;27;20066;-76
2022/01/08 07:01:25;;;;;;;11.88;5.28;;;3.20;99.90;;;;;;5116236;27;20030;-74
2022/01/08 07:03:50;;;;;;;8.65;5.50;;;3.20;99.90;;;;;;5113405;27;20038;-76
2022/01/08 07:06:17;;;;;;;13.25;5.97;;;3.20;99.90;;;;;;5098774;27;20031;-74
2022/01/08 07:08:42;;;;;;;7.95;4.95;;;3.20;99.90;;;;;;5129133;27;20542;-74
2022/01/08 07:11:10;;;;;;;15.95;6.03;;;3.30;99.90;;;;;;5113681;27;20078;-75
2022/01/08 07:13:36;;;;;;;12.52;6.60;;;2.90;99.90;;;;;;5104496;27;20038;-75
2022/01/08 07:16:02;;;;;;;16.38;6.25;;;2.80;99.90;;;;;;5081513;27;20501;-74
2022/01/08 07:18:27;;;;;;;12.63;5.55;;;3.30;99.90;;;;;;5094039;27;20409;-74
2022/01/08 07:20:54;;;;;;;10.63;6.38;;;3.10;99.90;;;;;;5118592;27;20095;-74
2022/01/08 07:23:21;;;;;;;13.57;5.55;;;3.30;99.90;;;;;;5134550;27;20083;-73
2022/01/08 07:25:47;;;;;;;15.05;5.95;;;3.70;99.90;;;;;;5119078;27;20402;-74
2022/01/08 07:28:12;;;;;;;18.20;6.53;;;3.20;99.90;;;;;;5098129;27;20123;-76
2022/01/08 07:30:38;;;;;;;17.83;7.18;;;2.80;99.90;;;;;;5135871;27;20035;-74
2022/01/08 07:33:03;;;;;;;13.13;6.00;;;2.90;99.90;;;;;;5114187;27;20123;-76
2022/01/08 07:35:29;;;;;;;19.13;6.63;;;3.20;99.90;;;;;;5116643;27;20049;-74
2022/01/08 07:37:55;;;;;;;10.45;5.72;;;2.80;99.90;;;;;;5116435;27;20050;-75
2022/01/08 07:40:22;;;;;;;11.50;5.90;;;2.90;99.90;;;;;;5117592;27;20039;-75
2022/01/08 07:42:47;;;;;;;8.82;4.93;;;2.90;99.90;;;;;;5129630;27;20031;-73
2022/01/08 07:45:13;;;;;;;12.02;5.40;;;3.30;99.90;;;;;;5094649;27;20034;-73
2022/01/08 07:47:39;;;;;;;15.55;6.32;;;2.80;99.90;;;;;;5113539;27;20537;-73
2022/01/08 07:50:05;;;;;;;14.55;6.72;;;2.80;99.90;;;;;;5112806;27;20189;-75
2022/01/08 07:52:31;;;;;;;11.07;5.07;;;3.20;99.90;;;;;;5128989;27;20379;-73
2022/01/08 07:54:57;;;;;;;12.80;6.10;;;3.20;99.90;;;;;;5111859;27;20035;-75
2022/01/08 07:57:23;;;;;;;13.95;5.88;;;3.30;99.90;;;;;;5116536;27;20039;-75
2022/01/08 07:59:49;;;;;;;14.50;5.88;;;3.30;99.90;;;;;;5096508;27;20114;-75
2022/01/08 08:02:15;;;;;;;15.50;5.45;;;3.10;99.90;;;;;;5112151;27;20513;-75
2022/01/08 08:04:41;;;;;;;11.07;5.30;;;3.20;99.90;;;;;;5111105;27;20034;-75
2022/01/08 08:07:07;;;;;;;11.30;5.50;;;3.20;99.90;;;;;;5128603;27;20042;-73
2022/01/08 08:09:36;;;;;;;15.20;5.93;;;3.80;99.90;;;;;;5095941;27;20478;-73
2022/01/08 08:12:04;;;;;;;12.55;5.70;;;3.30;99.90;;;;;;5097530;28;20039;-78
2022/01/08 08:14:33;;;;;;;13.07;5.53;;;2.90;99.90;;;;;;5098964;27;20038;-73
2022/01/08 08:16:59;;;;;;;12.98;5.95;;;3.10;99.90;;;;;;5090363;27;20047;-76
2022/01/08 08:19:25;;;;;;;12.88;6.07;;;3.30;99.90;;;;;;5091993;27;20641;-76
2022/01/08 08:21:50;;;;;;;8.70;4.72;;;2.70;99.90;;;;;;5115939;27;20039;-74
2022/01/08 08:24:19;;;;;;;8.23;3.75;;;4.20;99.90;;;;;;5109525;27;20037;-73
2022/01/08 08:26:44;;;;;;;13.43;4.93;;;3.00;99.90;;;;;;5126910;27;20031;-76
2022/01/08 08:29:10;;;;;;;9.68;4.22;;;2.70;99.90;;;;;;5104969;27;20035;-74
2022/01/08 08:31:36;;;;;;;9.20;4.15;;;2.90;99.90;;;;;;5094773;27;20094;-77
2022/01/08 08:34:02;;;;;;;8.48;4.38;;;2.50;99.90;;;;;;5094916;27;20039;-75
2022/01/08 08:36:28;;;;;;;12.27;4.90;;;3.40;99.90;;;;;;5109284;27;20481;-74
2022/01/08 08:38:54;;;;;;;11.88;5.47;;;3.00;99.90;;;;;;5095748;27;20034;-76
2022/01/08 08:41:20;;;;;;;10.15;5.43;;;3.60;99.90;;;;;;5096221;28;20130;-74
2022/01/08 08:43:46;;;;;;;10.25;4.90;;;3.30;99.90;;;;;;5103014;27;20502;-76
2022/01/08 08:46:11;;;;;;;6.32;4.32;;;3.50;99.90;;;;;;5115995;27;20042;-74
2022/01/08 08:48:37;;;;;;;9.32;4.63;;;3.80;99.90;;;;;;5097886;27;20027;-71
2022/01/08 08:51:03;;;;;;;6.93;3.55;;;3.90;99.90;;;;;;5114179;27;20165;-75
2022/01/08 08:53:28;;;;;;;6.35;3.50;;;3.60;99.90;;;;;;5099884;27;20074;-71
2022/01/08 08:55:54;;;;;;;5.90;3.30;;;3.40;99.90;;;;;;5127599;27;20038;-73
2022/01/08 08:58:20;;;;;;;11.18;3.90;;;3.40;99.90;;;;;;5126913;27;20475;-73
2022/01/08 09:00:48;;;;;;;8.73;3.40;;;4.00;99.90;;;;;;5113435;27;20027;-71
2022/01/08 09:03:15;;;;;;;5.78;3.13;;;3.40;99.90;;;;;;5124878;27;20039;-73
2022/01/08 09:05:41;;;;;;;9.77;3.30;;;3.20;99.90;;;;;;5124987;27;20039;-76
2022/01/08 09:08:07;;;;;;;5.85;3.78;;;3.20;99.90;;;;;;5109636;27;20053;-75
2022/01/08 09:10:33;;;;;;;10.07;3.42;;;3.50;99.90;;;;;;5094066;27;20054;-72
2022/01/08 09:12:59;;;;;;;5.55;2.90;;;3.40;99.90;;;;;;5109755;27;20092;-73
2022/01/08 09:15:26;;;;;;;9.13;3.65;;;4.50;99.90;;;;;;5117272;27;20027;-73
2022/01/08 09:17:56;;;;;;;8.43;3.75;;;3.30;99.90;;;;;;5097762;27;20614;-74
2022/01/08 09:20:23;;;;;;;7.32;3.63;;;3.40;99.90;;;;;;5110326;27;20035;-73
2022/01/08 09:22:49;;;;;;;10.38;3.58;;;4.00;99.90;;;;;;5098023;27;20379;-74
2022/01/08 09:25:15;;;;;;;12.27;3.80;;;3.60;99.90;;;;;;5113934;27;20043;-71
2022/01/08 09:27:41;;;;;;;7.38;3.60;;;3.90;99.90;;;;;;5113524;27;20039;-71
2022/01/08 09:30:07;;;;;;;8.98;3.65;;;3.70;99.90;;;;;;5095997;27;20767;-72
2022/01/08 09:32:34;;;;;;;10.90;3.97;;;4.30;99.90;;;;;;5092654;27;20082;-72
2022/01/08 09:35:00;;;;;;;7.07;3.50;;;4.50;99.90;;;;;;5081040;27;20452;-73
2022/01/08 09:37:26;;;;;;;9.95;3.42;;;4.60;99.90;;;;;;5103260;27;20044;-75
2022/01/08 09:39:52;;;;;;;6.10;3.63;;;4.50;99.90;;;;;;5125667;27;20038;-73
2022/01/08 09:42:20;;;;;;;10.50;3.40;;;4.50;99.90;;;;;;5106679;27;20062;-73
2022/01/08 09:44:54;;;;;;;6.53;3.53;;;4.40;99.90;;;;;;5086184;27;20852;-72
2022/01/08 09:47:20;;;;;;;8.13;3.50;;;4.10;99.90;;;;;;5067771;27;20039;-72
2022/01/08 09:49:46;;;;;;;6.30;2.70;;;3.90;99.90;;;;;;5090901;27;20071;-73
2022/01/08 09:52:12;;;;;;;11.93;4.78;;;3.90;99.90;;;;;;5109676;27;20490;-72
2022/01/08 09:54:39;;;;;;;7.20;3.65;;;3.60;99.90;;;;;;5111240;27;20125;-70
2022/01/08 09:57:05;;;;;;;9.70;3.67;;;3.70;99.90;;;;;;5094195;27;20047;-72
2022/01/08 09:59:31;;;;;;;9.90;3.15;;;3.70;99.90;;;;;;5075146;27;20051;-71
2022/01/08 10:02:01;;;;;;;6.57;2.95;;;3.60;99.90;;;;;;5094931;27;20114;-70
2022/01/08 10:04:29;;;;;;;6.50;3.17;;;3.60;99.90;;;;;;5094833;27;20359;-70
2022/01/08 10:07:14;;;;;;;9.88;3.35;;;3.80;99.90;;;;;;5127818;27;20065;-72
2022/01/08 10:10:17;;;;;;;5.65;3.20;;;3.80;99.90;;;;;;5121430;27;20062;-70
2022/01/08 10:12:54;;;;;;;7.35;2.50;;;4.10;99.90;;;;;;5126659;27;20038;-72
2022/01/08 10:18:32;;;;;;;5.90;2.67;;;3.90;99.90;;;;;;5109001;27;20414;-71
2022/01/08 10:20:59;;;;;;;9.93;3.57;;;3.80;99.90;;;;;;5126360;27;20053;-71
2022/01/08 10:23:28;;;;;;;6.13;3.10;;;3.80;99.90;;;;;;5103538;27;20292;-71
2022/01/08 10:26:07;;;;;;;7.85;3.00;;;3.60;99.90;;;;;;5128312;27;20070;-74
2022/01/08 10:28:38;;;;;;;7.13;3.15;;;3.60;99.90;;;;;;5127612;27;20046;-73
2022/01/08 10:31:07;;;;;;;12.05;6.88;;;3.70;99.90;;;;;;5108525;27;20090;-72
2022/01/08 10:33:32;;;;;;;6.30;3.50;;;3.60;99.90;;;;;;5108697;27;20042;-72
2022/01/08 10:35:58;;;;;;;7.05;3.30;;;3.60;99.90;;;;;;5127441;27;20069;-71
2022/01/08 10:38:27;;;;;;;9.40;3.70;;;3.50;99.90;;;;;;5106338;27;20047;-72
2022/01/08 10:40:53;;;;;;;7.10;3.50;;;3.60;99.90;;;;;;5127335;27;20391;-74
2022/01/08 10:43:31;;;;;;;6.32;3.17;;;3.50;99.90;;;;;;5109533;27;20042;-71
2022/01/08 10:46:17;;;;;;;5.32;3.38;;;3.80;99.90;;;;;;5127343;27;20053;-71
2022/01/08 10:48:49;;;;;;;8.07;3.63;;;3.50;99.90;;;;;;5109606;27;20053;-72
2022/01/08 10:51:19;;;;;;;9.07;3.72;;;3.60;99.90;;;;;;5127237;27;20054;-73
2022/01/08 10:53:51;;;;;;;5.85;3.13;;;3.60;99.90;;;;;;5106369;27;20154;-71
2022/01/08 10:56:25;;;;;;;7.22;3.88;;;4.70;99.90;;;;;;5122556;27;20475;-73
2022/01/08 10:58:56;;;;;;;7.68;4.00;;;3.60;99.90;;;;;;5110175;27;20046;-71
2022/01/08 11:01:42;;;;;;;10.63;3.28;;;3.70;99.90;;;;;;5109432;27;20646;-70
2022/01/08 11:04:11;;;;;;;10.50;3.80;;;3.50;99.90;;;;;;5110077;27;20038;-72
2022/01/08 11:06:55;;;;;;;10.77;4.57;;;3.70;99.90;;;;;;5106673;27;20623;-70
2022/01/08 11:09:22;;;;;;;12.18;4.13;;;3.60;99.90;;;;;;5106250;27;20043;-71
2022/01/08 11:11:50;;;;;;;6.38;3.65;;;3.60;99.90;;;;;;5122646;27;20081;-72
2022/01/08 11:14:46;;;;;;;10.40;4.22;;;3.60;99.90;;;;;;5122572;27;20046;-73
2022/01/08 11:17:16;;;;;;;8.60;3.88;;;3.60;99.90;;;;;;5115090;27;20039;-73
2022/01/08 11:19:45;;;;;;;6.95;3.63;;;3.70;99.90;;;;;;5086867;27;20039;-72
2022/01/08 11:22:13;;;;;;;11.18;4.55;;;3.60;99.90;;;;;;5104972;27;20386;-71
2022/01/08 11:24:50;;;;;;;9.85;4.68;;;3.90;99.90;;;;;;5122734;27;20116;-70
2022/01/08 11:27:44;;;;;;;11.02;4.85;;;3.90;99.90;;;;;;5104807;27;20035;-76
2022/01/08 11:30:14;;;;;;;7.53;4.18;;;3.80;99.90;;;;;;5072781;28;20440;-69
2022/01/08 11:32:41;;;;;;;6.15;4.10;;;3.70;99.90;;;;;;5119799;27;20043;-71
2022/01/08 11:35:09;;;;;;;7.82;3.70;;;3.80;99.90;;;;;;5106022;27;20047;-71
2022/01/08 11:37:35;;;;;;;8.40;4.28;;;3.70;99.90;;;;;;5122473;27;20712;-70
2022/01/08 11:40:08;;;;;;;8.43;3.72;;;3.80;99.90;;;;;;5089085;27;20035;-71
2022/01/08 11:42:40;;;;;;;9.98;4.80;;;3.90;99.90;;;;;;5121746;27;20100;-71
2022/01/08 11:45:19;;;;;;;9.93;5.05;;;3.80;99.90;;;;;;5090077;27;20039;-71
2022/01/08 11:47:53;;;;;;;6.78;3.83;;;3.80;99.90;;;;;;5122401;27;20155;-72
2022/01/08 11:50:21;;;;;;;6.45;4.22;;;3.80;99.90;;;;;;5095101;27;20042;-71
2022/01/08 11:53:07;;;;;;;5.90;3.55;;;3.90;99.90;;;;;;5105356;27;20100;-73
2022/01/08 11:55:36;;;;;;;9.05;5.00;;;3.80;99.90;;;;;;5112501;27;20054;-71
2022/01/08 11:58:22;;;;;;;7.90;4.10;;;4.00;99.90;;;;;;5103220;27;20043;-72
2022/01/08 12:00:53;;;;;;;12.43;6.15;;;3.90;99.90;;;;;;5119483;27;20533;-72
2022/01/08 12:03:29;;;;;;;11.82;5.82;;;3.90;99.90;;;;;;5105071;28;20035;-73
2022/01/08 12:05:55;;;;;;;9.75;5.00;;;4.00;99.90;;;;;;5105620;28;20096;-73
2022/01/08 12:08:57;;;;;;;8.98;5.47;;;4.20;99.90;;;;;;5080121;28;20052;-76
2022/01/08 12:11:31;;;;;;;12.68;5.47;;;3.90;99.90;;;;;;5085970;28;20058;-73
2022/01/08 12:14:08;;;;;;;9.82;5.85;;;4.00;99.90;;;;;;5079906;28;20084;-71
2022/01/08 12:16:42;;;;;;;11.80;5.72;;;4.20;99.90;;;;;;5138342;27;20129;-74
2022/01/08 12:19:25;;;;;;;9.00;5.07;;;4.00;99.90;;;;;;5102527;28;20082;-74
2022/01/08 12:21:51;;;;;;;10.30;4.57;;;4.00;99.90;;;;;;5102561;28;20040;-75
2022/01/08 12:24:26;;;;;;;8.85;6.07;;;4.10;99.90;;;;;;5083089;28;20092;-73
2022/01/08 12:26:54;;;;;;;7.55;5.43;;;4.00;99.90;;;;;;5104869;28;20039;-74
2022/01/08 12:29:43;;;;;;;9.68;5.82;;;4.10;99.90;;;;;;5077361;28;20043;-75
2022/01/08 12:32:37;;;;;;;7.63;5.05;;;4.10;99.90;;;;;;5083569;28;20036;-73
2022/01/08 12:35:15;;;;;;;12.35;7.22;;;4.20;99.90;;;;;;5070827;28;20051;-75
2022/01/08 12:37:46;;;;;;;9.60;6.85;;;4.10;99.90;;;;;;5101595;28;20050;-73
2022/01/08 12:40:31;;;;;;;14.63;7.25;;;4.20;99.90;;;;;;5077392;28;20091;-73
2022/01/08 12:42:57;;;;;;;15.25;8.52;;;4.20;99.90;;;;;;5081687;28;20071;-72
2022/01/08 12:45:29;;;;;;;11.45;7.40;;;4.10;99.90;;;;;;5059371;28;20392;-74
2022/01/08 12:48:09;;;;;;;11.10;6.22;;;4.10;99.90;;;;;;5083737;28;20126;-75
2022/01/08 12:50:36;;;;;;;11.32;7.03;;;4.20;99.90;;;;;;5093261;28;20047;-72
2022/01/08 12:53:08;;;;;;;11.73;8.35;;;4.10;99.90;;;;;;5085874;28;20048;-70
2022/01/08 12:55:49;;;;;;;13.20;8.52;;;4.10;99.90;;;;;;5074481;28;20099;-72
2022/01/08 12:58:19;;;;;;;13.88;8.73;;;4.20;99.90;;;;;;5089629;28;20043;-72
2022/01/08 13:00:58;;;;;;;13.43;8.75;;;4.10;99.90;;;;;;5099975;28;20055;-71
2022/01/08 13:03:27;;;;;;;15.57;10.10;;;4.20;99.90;;;;;;5091536;28;20134;-73
2022/01/08 13:05:53;;;;;;;12.80;7.68;;;4.10;99.90;;;;;;5085688;28;20043;-72
2022/01/08 13:08:27;;;;;;;13.10;7.70;;;4.10;99.90;;;;;;5086248;27;20090;-71
2022/01/08 13:10:57;;;;;;;12.77;8.40;;;4.10;99.90;;;;;;5116795;27;20047;-73
2022/01/08 13:13:24;;;;;;;13.27;8.90;;;4.20;99.90;;;;;;5116603;27;20108;-72
2022/01/08 13:15:50;;;;;;;17.90;11.15;;;4.10;99.90;;;;;;5128110;27;20120;-75
2022/01/08 13:18:22;;;;;;;18.48;11.10;;;4.10;99.90;;;;;;5092598;27;20390;-75
2022/01/08 13:21:02;;;;;;;15.00;11.15;;;4.20;99.90;;;;;;5109873;27;20035;-71
2022/01/08 13:23:28;;;;;;;17.10;10.93;;;4.10;99.90;;;;;;5127099;27;20720;-73
2022/01/08 13:25:57;;;;;;;14.77;9.52;;;4.10;99.90;;;;;;5110349;27;20043;-72